createdAt,value
2018-02-25T00:00:54.018Z,34.60
2018-02-25T00:03:21.063Z,40.27
2018-02-25T00:05:48.167Z,35.10
2018-02-25T00:08:15.202Z,35.83
2018-02-25T00:10:42.251Z,30.20
2018-02-25T00:13:09.343Z,31.57
2018-02-25T00:15:36.390Z,31.33
2018-02-25T00:18:03.439Z,33.47
2018-02-25T00:20:30.541Z,27.50
2018-02-25T00:22:57.583Z,32.23
2018-02-25T00:25:24.632Z,33.43
2018-02-25T00:27:51.731Z,32.20
2018-02-25T00:30:18.783Z,30.27
2018-02-25T00:32:45.831Z,33.97
2018-02-25T00:35:12.939Z,26.63
2018-02-25T00:37:39.996Z,35.10
2018-02-25T00:40:07.041Z,33.97
2018-02-25T00:42:34.155Z,35.73
2018-02-25T00:45:01.211Z,31.40
2018-02-25T00:47:28.358Z,35.33
2018-02-25T00:49:55.442Z,30.00
2018-02-25T00:55:01.031Z,36.92
2018-02-25T00:57:28.085Z,34.47
2018-02-25T00:59:55.143Z,30.53
2018-02-25T01:02:22.247Z,35.33
2018-02-25T01:04:49.292Z,32.93
2018-02-25T01:07:16.336Z,37.67
2018-02-25T01:09:43.435Z,31.03
2018-02-25T01:12:10.491Z,32.70
2018-02-25T01:14:37.536Z,33.63
2018-02-25T01:25:13.876Z,28.90
2018-02-25T01:27:40.924Z,27.73
2018-02-25T01:30:08.034Z,30.07
2018-02-25T01:32:35.076Z,29.30
2018-02-25T01:35:02.132Z,28.97
2018-02-25T01:37:29.226Z,33.00
2018-02-25T01:39:56.268Z,32.60
2018-02-25T01:42:23.307Z,30.83
2018-02-25T01:44:50.412Z,31.83
2018-02-25T01:47:17.466Z,25.77
2018-02-25T01:49:44.510Z,26.40
2018-02-25T01:52:11.623Z,20.03
2018-02-25T01:54:38.661Z,22.93
2018-02-25T01:57:06.226Z,26.17
2018-02-25T01:59:33.244Z,22.77
2018-02-25T02:02:00.298Z,28.50
2018-02-25T02:04:27.340Z,23.73
2018-02-25T02:06:54.447Z,25.00
2018-02-25T02:09:21.494Z,29.00
2018-02-25T02:11:48.553Z,26.70
2018-02-25T02:14:15.654Z,22.57
2018-02-25T02:16:42.700Z,22.30
2018-02-25T02:19:09.743Z,22.47
2018-02-25T02:21:36.830Z,19.27
2018-02-25T02:26:44.416Z,28.20
2018-02-25T02:29:11.470Z,31.50
2018-02-25T02:31:38.834Z,24.57
2018-02-25T02:34:05.943Z,26.03
2018-02-25T02:36:32.995Z,31.00
2018-02-25T02:39:00.042Z,26.07
2018-02-25T02:41:27.228Z,25.00
2018-02-25T02:43:54.270Z,24.90
2018-02-25T02:46:21.323Z,27.60
2018-02-25T02:48:48.428Z,28.00
2018-02-25T02:51:15.474Z,25.47
2018-02-25T02:53:42.518Z,26.73
2018-02-25T02:56:09.673Z,19.57
2018-02-25T02:58:36.691Z,22.70
2018-02-25T03:01:05.191Z,26.60
2018-02-25T03:03:34.112Z,33.03
2018-02-25T03:06:01.494Z,22.67
2018-02-25T03:08:28.531Z,26.13
2018-02-25T03:10:55.630Z,21.87
2018-02-25T03:13:22.690Z,20.13
2018-02-25T03:15:49.741Z,25.33
2018-02-25T03:18:16.945Z,21.83
2018-02-25T03:20:44.006Z,23.10
2018-02-25T03:23:11.058Z,24.13
2018-02-25T03:25:38.144Z,22.70
2018-02-25T03:28:05.194Z,17.10
2018-02-25T03:30:32.238Z,17.57
2018-02-25T03:32:59.332Z,23.30
2018-02-25T03:38:07.688Z,28.05
2018-02-25T03:40:34.728Z,23.73
2018-02-25T03:43:01.773Z,19.23
2018-02-25T03:45:28.865Z,23.67
2018-02-25T03:47:55.910Z,19.80
2018-02-25T03:50:22.956Z,23.77
2018-02-25T03:52:50.048Z,16.93
2018-02-25T03:55:17.092Z,22.50
2018-02-25T03:57:44.133Z,18.30
2018-02-25T04:00:11.229Z,23.67
2018-02-25T04:02:38.283Z,25.57
2018-02-25T04:05:05.325Z,18.03
2018-02-25T04:07:32.424Z,26.23
2018-02-25T04:10:00.238Z,21.17
2018-02-25T04:12:27.280Z,13.97
2018-02-25T04:14:55.164Z,15.97
2018-02-25T04:17:22.209Z,20.43
2018-02-25T04:19:49.266Z,18.23
2018-02-25T04:22:16.794Z,24.60
2018-02-25T04:24:47.019Z,13.60
2018-02-25T04:27:14.466Z,17.77
2018-02-25T04:29:41.582Z,18.90
2018-02-25T04:32:08.644Z,9.80
2018-02-25T04:34:35.681Z,17.73
2018-02-25T04:37:02.772Z,26.57
2018-02-25T04:39:29.822Z,16.87
2018-02-25T04:41:59.040Z,18.53
2018-02-25T04:44:26.158Z,21.03
2018-02-25T04:46:53.194Z,20.70
2018-02-25T04:49:20.244Z,13.53
2018-02-25T04:51:47.362Z,19.80
2018-02-25T04:54:14.409Z,13.33
2018-02-25T04:56:41.453Z,14.50
2018-02-25T05:01:47.030Z,22.23
2018-02-25T05:04:14.123Z,19.97
2018-02-25T05:06:41.170Z,17.77
2018-02-25T05:09:08.210Z,20.43
2018-02-25T05:11:35.326Z,20.47
2018-02-25T05:14:02.374Z,16.67
2018-02-25T05:16:29.412Z,15.60
2018-02-25T05:18:56.516Z,19.73
2018-02-25T05:21:23.559Z,18.80
2018-02-25T05:23:50.614Z,19.53
2018-02-25T05:26:17.703Z,19.10
2018-02-25T05:28:44.744Z,25.03
2018-02-25T05:31:11.795Z,21.93
2018-02-25T05:33:38.899Z,15.77
2018-02-25T05:36:05.949Z,20.90
2018-02-25T05:38:32.986Z,24.50
2018-02-25T05:41:00.083Z,21.93
2018-02-25T05:43:27.137Z,21.87
2018-02-25T05:45:54.178Z,22.83
2018-02-25T05:48:21.274Z,18.33
2018-02-25T05:50:48.318Z,26.47
2018-02-25T05:53:15.356Z,21.00
2018-02-25T05:55:42.464Z,20.40
2018-02-25T06:00:41.712Z,23.67
2018-02-25T06:03:08.831Z,21.63
2018-02-25T06:05:35.885Z,23.33
2018-02-25T06:08:02.931Z,20.90
2018-02-25T06:10:30.030Z,16.60
2018-02-25T06:12:57.537Z,22.13
2018-02-25T06:15:24.584Z,19.43
2018-02-25T06:17:51.951Z,15.60
2018-02-25T06:20:19.007Z,21.03
2018-02-25T06:22:46.043Z,15.50
2018-02-25T06:27:51.637Z,22.42
2018-02-25T06:30:18.753Z,19.37
2018-02-25T06:32:45.815Z,20.97
2018-02-25T06:35:12.860Z,19.07
2018-02-25T06:37:39.966Z,16.17
2018-02-25T06:40:07.008Z,16.40
2018-02-25T06:42:34.060Z,21.37
2018-02-25T06:45:01.193Z,13.97
2018-02-25T06:47:28.234Z,18.00
2018-02-25T06:49:55.286Z,19.80
2018-02-25T06:52:22.485Z,19.23
2018-02-25T06:54:49.544Z,17.90
2018-02-25T06:57:16.587Z,18.00
2018-02-25T06:59:43.716Z,17.70
2018-02-25T07:02:10.758Z,18.60
2018-02-25T07:04:37.810Z,24.50
2018-02-25T07:07:05.165Z,20.13
2018-02-25T07:09:32.206Z,22.13
2018-02-25T07:11:59.250Z,18.10
2018-02-25T07:14:26.356Z,23.23
2018-02-25T07:16:53.398Z,21.73
2018-02-25T07:19:20.438Z,22.10
2018-02-25T07:21:47.533Z,10.93
2018-02-25T07:24:14.571Z,22.40
2018-02-25T07:26:41.659Z,24.27
2018-02-25T07:29:08.731Z,21.33
2018-02-25T07:31:35.771Z,21.80
2018-02-25T07:34:03.150Z,20.67
2018-02-25T07:36:30.271Z,24.20
2018-02-25T07:38:57.305Z,21.23
2018-02-25T07:44:02.960Z,24.37
2018-02-25T07:46:32.737Z,22.43
2018-02-25T07:48:57.040Z,20.40
2018-02-25T07:51:24.207Z,21.37
2018-02-25T07:53:51.202Z,22.73
2018-02-25T07:56:18.243Z,22.33
2018-02-25T07:58:45.351Z,21.90
2018-02-25T08:01:12.421Z,19.67
2018-02-25T08:03:39.549Z,22.97
2018-02-25T08:06:06.664Z,16.63
2018-02-25T08:11:14.719Z,23.38
2018-02-25T08:13:41.788Z,25.53
2018-02-25T08:16:08.842Z,21.60
2018-02-25T08:18:35.934Z,33.70
2018-02-25T08:21:03.310Z,24.40
2018-02-25T08:23:30.369Z,21.57
2018-02-25T08:25:57.475Z,23.80
2018-02-25T08:28:24.528Z,22.00
2018-02-25T08:30:51.614Z,24.07
2018-02-25T08:33:18.771Z,22.57
2018-02-25T08:35:45.828Z,23.07
2018-02-25T08:38:12.868Z,19.43
2018-02-25T08:40:39.968Z,16.37
2018-02-25T08:43:07.021Z,24.53
2018-02-25T08:45:34.058Z,25.50
2018-02-25T08:48:01.178Z,23.07
2018-02-25T08:50:28.216Z,23.27
2018-02-25T08:52:55.265Z,23.03
2018-02-25T08:55:25.244Z,22.00
2018-02-25T08:57:49.432Z,25.87
2018-02-25T09:00:16.570Z,22.13
2018-02-25T09:02:43.838Z,25.60
2018-02-25T09:05:10.883Z,23.57
2018-02-25T09:07:37.934Z,24.73
2018-02-25T09:10:05.057Z,24.90
2018-02-25T09:12:32.114Z,23.37
2018-02-25T09:15:00.137Z,21.77
2018-02-25T09:17:27.244Z,19.83
2018-02-25T09:19:54.298Z,27.87
2018-02-25T09:22:21.358Z,23.37
2018-02-25T09:24:48.459Z,25.43
2018-02-25T09:27:15.504Z,17.50
2018-02-25T09:29:42.575Z,22.30
2018-02-25T09:32:09.817Z,21.60
2018-02-25T09:37:15.403Z,27.33
2018-02-25T09:39:42.988Z,21.07
2018-02-25T09:42:09.958Z,24.43
2018-02-25T09:47:17.370Z,24.37
2018-02-25T09:49:44.148Z,23.80
2018-02-25T09:54:47.045Z,21.97
2018-02-25T09:57:14.094Z,21.63
2018-02-25T09:59:41.144Z,20.83
2018-02-25T10:02:08.263Z,24.57
2018-02-25T10:04:35.324Z,18.37
2018-02-25T10:07:02.450Z,21.70
2018-02-25T10:09:29.649Z,19.00
2018-02-25T10:11:56.713Z,19.33
2018-02-25T10:14:23.795Z,22.97
2018-02-25T10:16:50.845Z,19.50
2018-02-25T10:19:17.913Z,25.80
2018-02-25T10:21:44.959Z,24.93
2018-02-25T10:24:12.071Z,15.80
2018-02-25T10:26:39.114Z,20.93
2018-02-25T10:29:06.161Z,19.73
2018-02-25T10:31:33.272Z,17.77
2018-02-25T10:34:01.292Z,21.43
2018-02-25T10:36:28.372Z,18.83
2018-02-25T10:38:55.476Z,23.17
2018-02-25T10:41:22.537Z,21.20
2018-02-25T10:43:49.699Z,21.13
2018-02-25T10:46:16.803Z,25.07
2018-02-25T10:48:43.874Z,20.13
2018-02-25T10:51:10.940Z,21.67
2018-02-25T10:53:38.054Z,24.90
2018-02-25T10:56:05.107Z,21.33
2018-02-25T10:58:32.256Z,21.93
2018-02-25T11:00:59.360Z,22.67
2018-02-25T11:03:26.412Z,18.20
2018-02-25T11:05:53.475Z,35.57
2018-02-25T11:10:59.083Z,24.95
2018-02-25T11:13:26.203Z,24.60
2018-02-25T11:15:53.276Z,23.37
2018-02-25T11:18:20.329Z,22.03
2018-02-25T11:20:47.862Z,21.50
2018-02-25T11:23:14.897Z,19.43
2018-02-25T11:25:42.290Z,19.23
2018-02-25T11:28:09.398Z,18.80
2018-02-25T11:30:36.462Z,16.20
2018-02-25T11:33:03.514Z,20.30
2018-02-25T11:35:30.642Z,23.10
2018-02-25T11:37:57.711Z,19.50
2018-02-25T11:40:24.847Z,17.83
2018-02-25T11:42:52.043Z,22.60
2018-02-25T11:45:19.100Z,12.93
2018-02-25T11:47:46.171Z,20.63
2018-02-25T11:50:13.281Z,16.97
2018-02-25T11:52:40.392Z,17.30
2018-02-25T11:55:07.417Z,22.57
2018-02-25T11:57:34.529Z,19.97
2018-02-25T12:00:03.488Z,18.80
2018-02-25T12:02:30.557Z,16.37
2018-02-25T12:04:57.660Z,22.57
2018-02-25T12:07:24.722Z,16.67
2018-02-25T12:09:51.796Z,17.43
2018-02-25T12:12:18.898Z,21.10
2018-02-25T12:14:45.961Z,23.40
2018-02-25T12:17:13.012Z,21.57
2018-02-25T12:19:40.116Z,18.80
2018-02-25T12:22:07.172Z,17.37
2018-02-25T12:24:34.228Z,14.60
2018-02-25T12:27:01.350Z,19.60
2018-02-25T12:29:28.399Z,15.70
2018-02-25T12:34:34.489Z,22.00
2018-02-25T12:37:01.467Z,18.97
2018-02-25T12:39:28.522Z,21.20
2018-02-25T12:41:55.643Z,20.63
2018-02-25T12:44:22.703Z,14.03
2018-02-25T12:46:49.768Z,17.90
2018-02-25T12:49:16.885Z,18.33
2018-02-25T12:51:43.934Z,20.93
2018-02-25T12:54:11.033Z,18.00
2018-02-25T12:56:38.173Z,19.13
2018-02-25T12:59:05.256Z,14.70
2018-02-25T13:01:32.280Z,14.53
2018-02-25T13:03:59.390Z,15.80
2018-02-25T13:06:26.456Z,18.07
2018-02-25T13:08:53.514Z,20.57
2018-02-25T13:11:20.637Z,12.00
2018-02-25T13:13:47.704Z,20.67
2018-02-25T13:16:14.775Z,22.23
2018-02-25T13:18:41.896Z,21.00
2018-02-25T13:21:08.951Z,22.00
2018-02-25T13:23:36.011Z,18.97
2018-02-25T13:26:03.119Z,15.93
2018-02-25T13:28:30.185Z,22.30
2018-02-25T13:30:57.274Z,20.53
2018-02-25T13:33:24.437Z,17.00
2018-02-25T13:35:51.448Z,23.03
2018-02-25T13:38:18.509Z,23.77
2018-02-25T13:40:45.614Z,16.43
2018-02-25T13:43:12.675Z,23.73
2018-02-25T13:45:39.731Z,21.93
2018-02-25T13:48:06.841Z,21.03
2018-02-25T13:50:33.919Z,11.67
2018-02-25T13:53:00.975Z,19.60
2018-02-25T13:58:06.650Z,19.90
2018-02-25T14:00:33.970Z,18.83
2018-02-25T14:03:00.964Z,15.43
2018-02-25T14:05:28.101Z,15.27
2018-02-25T14:07:55.200Z,20.37
2018-02-25T14:10:22.263Z,24.30
2018-02-25T14:12:49.323Z,21.03
2018-02-25T14:15:16.452Z,20.97
2018-02-25T14:17:43.550Z,19.87
2018-02-25T14:20:12.867Z,23.67
2018-02-25T14:22:39.986Z,20.20
2018-02-25T14:25:07.131Z,19.33
2018-02-25T14:27:34.278Z,17.90
2018-02-25T14:30:04.534Z,20.37
2018-02-25T14:32:31.561Z,25.13
2018-02-25T14:34:58.623Z,17.07
2018-02-25T14:37:25.750Z,16.20
2018-02-25T14:39:52.823Z,15.53
2018-02-25T14:42:19.875Z,18.20
2018-02-25T14:44:46.988Z,19.07
2018-02-25T14:47:14.055Z,14.47
2018-02-25T14:49:41.138Z,15.03
2018-02-25T14:52:08.238Z,16.30
2018-02-25T14:54:35.313Z,16.43
2018-02-25T14:57:02.370Z,20.80
2018-02-25T14:59:29.486Z,22.57
2018-02-25T15:01:56.544Z,16.27
2018-02-25T15:07:02.149Z,21.60
2018-02-25T15:09:29.226Z,18.03
2018-02-25T15:11:56.282Z,20.03
2018-02-25T15:14:23.866Z,20.03
2018-02-25T15:16:50.935Z,18.07
2018-02-25T15:19:17.993Z,16.83
2018-02-25T15:21:45.133Z,9.13
2018-02-25T15:24:12.195Z,15.63
2018-02-25T15:26:39.259Z,17.50
2018-02-25T15:29:06.401Z,16.60
2018-02-25T15:31:33.452Z,19.03
2018-02-25T15:34:00.512Z,19.50
2018-02-25T15:36:27.718Z,20.77
2018-02-25T15:38:54.794Z,11.60
2018-02-25T15:41:21.854Z,17.70
2018-02-25T15:43:48.976Z,26.20
2018-02-25T15:46:16.042Z,16.07
2018-02-25T15:48:43.109Z,14.93
2018-02-25T15:51:10.302Z,24.60
2018-02-25T15:53:37.363Z,18.83
2018-02-25T15:56:04.429Z,19.13
2018-02-25T15:58:31.534Z,19.03
2018-02-25T16:00:58.587Z,20.53
2018-02-25T16:03:25.899Z,16.23
2018-02-25T16:05:53.020Z,20.03
2018-02-25T16:08:20.078Z,19.90
2018-02-25T16:10:47.193Z,14.57
2018-02-25T16:13:14.256Z,14.63
2018-02-25T16:15:41.303Z,17.13
2018-02-25T16:18:08.377Z,19.40
2018-02-25T16:20:35.491Z,19.50
2018-02-25T16:23:02.565Z,20.37
2018-02-25T16:25:29.704Z,18.83
2018-02-25T16:27:57.698Z,16.37
2018-02-25T16:33:03.313Z,17.83
2018-02-25T16:35:30.815Z,17.20
2018-02-25T16:37:57.873Z,11.60
2018-02-25T16:40:24.984Z,9.93
2018-02-25T16:42:52.043Z,15.50
2018-02-25T16:45:19.093Z,15.73
2018-02-25T16:47:46.209Z,21.53
2018-02-25T16:50:13.247Z,16.77
2018-02-25T16:52:42.402Z,11.07
2018-02-25T16:55:09.523Z,12.47
2018-02-25T16:57:36.564Z,14.30
2018-02-25T17:00:03.871Z,13.77
2018-02-25T17:02:30.981Z,17.97
2018-02-25T17:04:58.130Z,14.50
2018-02-25T17:07:25.171Z,20.10
2018-02-25T17:09:52.273Z,17.07
2018-02-25T17:12:20.138Z,10.27
2018-02-25T17:14:47.187Z,15.07
2018-02-25T17:17:14.284Z,17.00
2018-02-25T17:19:41.349Z,11.93
2018-02-25T17:22:10.345Z,14.57
2018-02-25T17:24:35.514Z,13.30
2018-02-25T17:27:02.581Z,20.43
2018-02-25T17:29:29.629Z,19.70
2018-02-25T17:31:56.720Z,18.13
2018-02-25T17:34:23.822Z,13.70
2018-02-25T17:36:50.846Z,19.37
2018-02-25T17:39:18.038Z,16.70
2018-02-25T17:41:45.078Z,20.70
2018-02-25T17:44:12.129Z,13.97
2018-02-25T17:46:41.015Z,13.03
2018-02-25T17:49:08.058Z,17.03
2018-02-25T17:54:13.692Z,18.60
2018-02-25T17:56:40.749Z,18.77
2018-02-25T17:59:07.791Z,19.03
2018-02-25T18:01:34.881Z,11.40
2018-02-25T18:04:04.229Z,13.97
2018-02-25T18:06:31.276Z,18.90
2018-02-25T18:08:58.382Z,17.40
2018-02-25T18:11:25.432Z,13.30
2018-02-25T18:13:52.484Z,7.13
2018-02-25T18:16:19.583Z,15.97
2018-02-25T18:18:46.621Z,12.37
2018-02-25T18:21:13.687Z,10.30
2018-02-25T18:23:40.774Z,12.87
2018-02-25T18:26:07.838Z,9.57
2018-02-25T18:28:34.912Z,13.27
2018-02-25T18:31:02.018Z,13.23
2018-02-25T18:33:29.071Z,15.87
2018-02-25T18:35:56.216Z,15.37
2018-02-25T18:38:23.331Z,14.77
2018-02-25T18:40:50.408Z,17.13
2018-02-25T18:43:17.539Z,17.90
2018-02-25T18:45:44.652Z,15.60
2018-02-25T18:48:11.731Z,14.13
2018-02-25T18:50:38.798Z,15.60
2018-02-25T18:53:05.907Z,15.30
2018-02-25T18:55:33.083Z,16.00
2018-02-25T18:58:03.192Z,14.70
2018-02-25T19:00:30.306Z,15.10
2018-02-25T19:02:57.924Z,12.87
2018-02-25T19:05:24.967Z,15.13
2018-02-25T19:07:54.468Z,16.23
2018-02-25T19:10:21.508Z,13.00
2018-02-25T19:15:31.582Z,16.10
2018-02-25T19:17:58.647Z,15.77
2018-02-25T19:20:25.810Z,14.20
2018-02-25T19:22:53.308Z,14.47
2018-02-25T19:25:20.345Z,20.80
2018-02-25T19:27:53.198Z,14.07
2018-02-25T19:30:19.466Z,16.37
2018-02-25T19:32:46.710Z,21.37
2018-02-25T19:35:13.823Z,14.67
2018-02-25T19:37:40.888Z,17.03
2018-02-25T19:40:07.961Z,19.83
2018-02-25T19:42:35.150Z,18.57
2018-02-25T19:45:02.227Z,15.43
2018-02-25T19:47:29.283Z,15.77
2018-02-25T19:49:57.401Z,16.30
2018-02-25T19:52:24.487Z,18.17
2018-02-25T19:54:51.557Z,16.77
2018-02-25T19:57:18.693Z,15.93
2018-02-25T19:59:50.656Z,14.57
2018-02-25T20:02:18.097Z,16.77
2018-02-25T20:04:45.244Z,13.50
2018-02-25T20:07:43.769Z,19.63
2018-02-25T20:09:47.143Z,20.47
2018-02-25T20:14:45.807Z,15.53
2018-02-25T20:19:53.907Z,19.45
2018-02-25T20:22:21.078Z,17.30
2018-02-25T20:24:48.191Z,16.23
2018-02-25T20:27:15.313Z,13.70
2018-02-25T20:29:42.406Z,17.37
2018-02-25T20:32:10.135Z,14.60
2018-02-25T20:34:37.191Z,17.20
2018-02-25T20:37:04.327Z,14.30
2018-02-25T20:39:31.435Z,14.97
2018-02-25T20:41:58.501Z,15.83
2018-02-25T20:44:25.624Z,14.83
2018-02-25T20:46:52.679Z,16.43
2018-02-25T20:49:19.816Z,17.70
2018-02-25T20:51:46.874Z,15.63
2018-02-25T20:54:13.969Z,16.40
2018-02-25T20:56:41.014Z,13.43
2018-02-25T20:59:08.142Z,18.67
2018-02-25T21:01:35.284Z,15.13
2018-02-25T21:04:02.345Z,14.73
2018-02-25T21:06:29.416Z,21.20
2018-02-25T21:08:56.639Z,15.27
2018-02-25T21:11:23.734Z,13.37
2018-02-25T21:13:53.717Z,13.30
2018-02-25T21:18:58.996Z,16.53
2018-02-25T21:21:24.924Z,17.23
2018-02-25T21:23:52.061Z,16.20
2018-02-25T21:26:19.143Z,14.30
2018-02-25T21:28:46.397Z,13.00
2018-02-25T21:31:13.467Z,14.27
2018-02-25T21:33:40.499Z,13.80
2018-02-25T21:36:07.615Z,9.70
2018-02-25T21:38:36.029Z,12.43
2018-02-25T21:43:41.627Z,21.33
2018-02-25T21:46:08.709Z,16.33
2018-02-25T21:48:35.767Z,17.63
2018-02-25T21:51:02.893Z,16.73
2018-02-25T21:53:29.951Z,20.03
2018-02-25T21:55:57.012Z,11.47
2018-02-25T21:58:24.112Z,16.30
2018-02-25T22:00:51.226Z,16.63
2018-02-25T22:03:18.274Z,18.27
2018-02-25T22:05:45.398Z,13.83
2018-02-25T22:08:12.467Z,17.17
2018-02-25T22:10:39.532Z,13.50
2018-02-25T22:13:06.637Z,15.43
2018-02-25T22:15:33.693Z,13.93
2018-02-25T22:18:00.780Z,17.17
2018-02-25T22:23:09.008Z,18.73
2018-02-25T22:25:36.124Z,14.50
2018-02-25T22:28:03.195Z,16.17
2018-02-25T22:30:30.258Z,17.17
2018-02-25T22:32:57.495Z,11.90
2018-02-25T22:35:24.561Z,12.67
2018-02-25T22:37:51.620Z,15.33
2018-02-25T22:40:18.755Z,10.10
2018-02-25T22:42:46.297Z,13.67
2018-02-25T22:45:13.454Z,17.93
2018-02-25T22:47:40.661Z,21.80
2018-02-25T22:50:07.713Z,17.90
2018-02-25T22:52:34.779Z,15.63
2018-02-25T22:55:01.897Z,16.70
2018-02-25T22:57:28.972Z,20.30
2018-02-25T22:59:56.362Z,15.97
2018-02-25T23:02:23.493Z,23.20
2018-02-25T23:04:50.647Z,17.33
2018-02-25T23:07:17.815Z,16.70
2018-02-25T23:09:46.975Z,18.47
2018-02-25T23:12:20.417Z,16.80
2018-02-25T23:14:47.526Z,20.23
2018-02-25T23:17:14.676Z,19.23
2018-02-25T23:19:41.824Z,17.57
2018-02-25T23:22:09.024Z,15.07
2018-02-25T23:24:36.088Z,10.60
2018-02-25T23:27:03.160Z,19.03
2018-02-25T23:29:30.274Z,19.10
2018-02-25T23:31:57.355Z,11.80
2018-02-25T23:34:24.411Z,12.43
2018-02-25T23:36:51.616Z,16.27
2018-02-25T23:39:18.694Z,15.07
2018-02-25T23:41:45.855Z,16.30
2018-02-25T23:44:12.968Z,19.63
2018-02-25T23:49:19.420Z,20.12
2018-02-25T23:51:46.481Z,16.57
2018-02-25T23:54:13.549Z,11.17
2018-02-25T23:56:40.694Z,13.77
